createdAt,value
2023-05-21T00:00:18.822Z,22.14
2023-05-21T00:01:24.330Z,22.13
2023-05-21T00:02:30.077Z,22.15
2023-05-21T00:03:35.961Z,22.11
2023-05-21T00:04:41.893Z,22.1
2023-05-21T00:05:47.462Z,22.09
2023-05-21T00:06:53.226Z,22.09
2023-05-21T00:07:58.691Z,22.08
2023-05-21T00:09:04.199Z,22.1
2023-05-21T00:10:09.673Z,22.12
2023-05-21T00:11:15.173Z,22.11
2023-05-21T00:12:20.676Z,22.1
2023-05-21T00:13:26.134Z,22.09
2023-05-21T00:14:31.619Z,22.07
2023-05-21T00:15:37.223Z,22.05
2023-05-21T00:16:43.040Z,22.1
2023-05-21T00:17:48.775Z,22.07
2023-05-21T00:18:54.611Z,22.06
2023-05-21T00:20:00.328Z,22.05
2023-05-21T00:21:05.872Z,22.03
2023-05-21T00:22:11.358Z,22.07
2023-05-21T00:23:16.824Z,22.06
2023-05-21T00:24:22.336Z,22.1
2023-05-21T00:25:27.934Z,22.04
2023-05-21T00:26:33.404Z,22.04
2023-05-21T00:27:38.882Z,22.03
2023-05-21T00:28:44.367Z,22.02
2023-05-21T00:29:49.827Z,22.03
2023-05-21T00:30:55.339Z,22
2023-05-21T00:32:01.222Z,22
2023-05-21T00:33:06.959Z,22
2023-05-21T00:34:12.590Z,22.02
2023-05-21T00:35:18.032Z,22.01
2023-05-21T00:36:23.540Z,22
2023-05-21T00:37:29.104Z,21.99
2023-05-21T00:38:34.545Z,22
2023-05-21T00:39:40.001Z,21.99
2023-05-21T00:40:45.452Z,21.99
2023-05-21T00:41:50.962Z,21.98
2023-05-21T00:42:56.388Z,21.99
2023-05-21T00:44:01.895Z,21.97
2023-05-21T00:45:07.332Z,21.96
2023-05-21T00:46:12.839Z,21.97
2023-05-21T00:47:18.523Z,21.95
2023-05-21T00:48:24.046Z,21.96
2023-05-21T00:49:29.511Z,21.97
2023-05-21T00:50:34.965Z,21.94
2023-05-21T00:51:40.419Z,21.95
2023-05-21T00:52:45.931Z,21.97
2023-05-21T00:53:51.364Z,21.95
2023-05-21T00:54:56.846Z,21.95
2023-05-21T00:56:02.311Z,21.94
2023-05-21T00:57:07.800Z,21.93
2023-05-21T00:58:13.258Z,21.94
2023-05-21T00:59:18.731Z,21.95
2023-05-21T01:00:24.162Z,21.94
2023-05-21T01:01:29.649Z,21.93
2023-05-21T01:02:35.304Z,21.93
2023-05-21T01:03:41.269Z,21.92
2023-05-21T01:04:46.909Z,21.92
2023-05-21T01:05:52.362Z,21.92
2023-05-21T01:06:57.834Z,21.92
2023-05-21T01:08:03.385Z,21.93
2023-05-21T01:09:08.856Z,21.94
2023-05-21T01:10:14.310Z,21.93
2023-05-21T01:11:19.811Z,21.94
2023-05-21T01:12:27.742Z,21.98
2023-05-21T01:13:33.236Z,21.98
2023-05-21T01:14:38.712Z,21.98
2023-05-21T01:15:44.203Z,21.97
2023-05-21T01:16:49.762Z,21.98
2023-05-21T01:17:55.617Z,21.97
2023-05-21T01:19:01.304Z,21.99
2023-05-21T01:20:08.683Z,21.99
2023-05-21T01:21:14.736Z,21.98
2023-05-21T01:22:20.359Z,21.99
2023-05-21T01:23:25.833Z,22.01
2023-05-21T01:24:31.310Z,21.99
2023-05-21T01:25:37.061Z,21.96
2023-05-21T01:26:42.903Z,21.94
2023-05-21T01:27:48.467Z,21.98
2023-05-21T01:28:53.949Z,21.99
2023-05-21T01:29:59.398Z,21.96
2023-05-21T01:31:04.900Z,21.99
2023-05-21T01:32:10.357Z,21.96
2023-05-21T01:33:16.057Z,21.96
2023-05-21T01:34:21.893Z,21.96
2023-05-21T01:35:27.823Z,21.94
2023-05-21T01:36:33.294Z,21.92
2023-05-21T01:37:38.783Z,21.91
2023-05-21T01:38:44.236Z,21.91
2023-05-21T01:39:49.699Z,21.91
2023-05-21T01:40:55.189Z,21.91
2023-05-21T01:42:00.665Z,21.9
2023-05-21T01:43:06.147Z,21.89
2023-05-21T01:44:11.602Z,21.89
2023-05-21T01:45:17.324Z,21.89
2023-05-21T01:46:22.827Z,21.9
2023-05-21T01:47:28.431Z,21.92
2023-05-21T01:48:34.096Z,21.91
2023-05-21T01:49:39.550Z,21.9
2023-05-21T01:50:44.996Z,21.9
2023-05-21T01:51:50.460Z,21.9
2023-05-21T01:52:55.895Z,21.89
2023-05-21T01:54:01.361Z,21.9
2023-05-21T01:55:06.781Z,21.91
2023-05-21T01:56:12.336Z,21.89
2023-05-21T01:57:17.778Z,21.89
2023-05-21T01:58:23.224Z,21.89
2023-05-21T01:59:28.685Z,21.89
2023-05-21T02:00:34.159Z,21.89
2023-05-21T02:01:39.665Z,21.88
2023-05-21T02:02:45.253Z,21.88
2023-05-21T02:03:51.043Z,21.88
2023-05-21T02:04:56.851Z,21.87
2023-05-21T02:06:02.280Z,21.89
2023-05-21T02:07:07.750Z,21.89
2023-05-21T02:08:13.225Z,21.91
2023-05-21T02:09:18.662Z,21.91
2023-05-21T02:10:24.174Z,21.89
2023-05-21T02:11:29.638Z,21.89
2023-05-21T02:12:35.111Z,21.89
2023-05-21T02:13:40.552Z,21.92
2023-05-21T02:14:46.015Z,21.94
2023-05-21T02:15:51.475Z,21.95
2023-05-21T02:16:57.023Z,21.97
2023-05-21T02:18:02.525Z,21.94
2023-05-21T02:19:08.188Z,21.91
2023-05-21T02:20:14.024Z,21.9
2023-05-21T02:21:19.567Z,21.89
2023-05-21T02:22:25.018Z,21.89
2023-05-21T02:23:30.502Z,21.89
2023-05-21T02:24:35.984Z,21.9
2023-05-21T02:25:41.472Z,21.93
2023-05-21T02:26:46.922Z,21.93
2023-05-21T02:27:52.406Z,21.93
2023-05-21T02:28:58.010Z,21.94
2023-05-21T02:30:03.548Z,21.92
2023-05-21T02:31:09.032Z,21.94
2023-05-21T02:32:14.570Z,21.92
2023-05-21T02:33:20.053Z,21.92
2023-05-21T02:34:25.682Z,21.92
2023-05-21T02:35:31.545Z,21.94
2023-05-21T02:36:37.425Z,21.92
2023-05-21T02:37:42.894Z,21.94
2023-05-21T02:38:53.742Z,21.93
2023-05-21T02:39:59.228Z,21.91
2023-05-21T02:41:04.713Z,21.89
2023-05-21T02:42:10.192Z,21.89
2023-05-21T02:43:16.229Z,21.92
2023-05-21T02:44:21.894Z,21.89
2023-05-21T02:45:27.409Z,21.88
2023-05-21T02:46:32.936Z,21.88
2023-05-21T02:47:38.686Z,21.88
2023-05-21T02:48:44.380Z,21.88
2023-05-21T02:49:49.904Z,21.9
2023-05-21T02:50:55.390Z,21.89
2023-05-21T02:52:00.856Z,21.89
2023-05-21T02:53:06.331Z,21.88
2023-05-21T02:54:11.817Z,21.87
2023-05-21T02:55:17.301Z,21.89
2023-05-21T02:56:22.799Z,21.89
2023-05-21T02:57:28.266Z,21.89
2023-05-21T02:58:33.724Z,21.88
2023-05-21T02:59:39.200Z,21.9
2023-05-21T03:00:44.709Z,21.89
2023-05-21T03:01:50.212Z,21.9
2023-05-21T03:02:56.012Z,21.9
2023-05-21T03:04:01.858Z,21.88
2023-05-21T03:05:07.309Z,21.88
2023-05-21T03:06:12.798Z,21.87
2023-05-21T03:07:18.221Z,21.89
2023-05-21T03:08:23.690Z,21.89
2023-05-21T03:09:29.140Z,21.91
2023-05-21T03:10:34.672Z,21.9
2023-05-21T03:11:40.108Z,21.9
2023-05-21T03:12:45.541Z,21.89
2023-05-21T03:13:51.042Z,21.89
2023-05-21T03:14:56.549Z,21.89
2023-05-21T03:16:02.084Z,21.89
2023-05-21T03:17:07.628Z,21.89
2023-05-21T03:18:13.232Z,21.88
2023-05-21T03:19:18.788Z,21.87
2023-05-21T03:20:24.344Z,21.89
2023-05-21T03:21:29.825Z,21.88
2023-05-21T03:22:35.340Z,21.87
2023-05-21T03:23:40.823Z,21.86
2023-05-21T03:24:46.281Z,21.85
2023-05-21T03:25:51.780Z,21.88
2023-05-21T03:26:57.296Z,21.86
2023-05-21T03:28:02.899Z,21.87
2023-05-21T03:29:08.383Z,21.9
2023-05-21T03:30:13.887Z,21.89
2023-05-21T03:31:19.416Z,21.88
2023-05-21T03:32:25.210Z,21.87
2023-05-21T03:33:30.819Z,21.87
2023-05-21T03:34:36.277Z,21.87
2023-05-21T03:35:41.738Z,21.87
2023-05-21T03:36:47.316Z,21.88
2023-05-21T03:37:52.837Z,21.87
2023-05-21T03:38:58.324Z,21.87
2023-05-21T03:40:03.798Z,21.89
2023-05-21T03:41:09.250Z,21.91
2023-05-21T03:42:14.713Z,21.91
2023-05-21T03:43:20.218Z,21.89
2023-05-21T03:44:25.685Z,21.87
2023-05-21T03:45:31.176Z,21.88
2023-05-21T03:46:37.028Z,21.91
2023-05-21T03:47:42.675Z,21.89
2023-05-21T03:48:48.286Z,21.88
2023-05-21T03:49:53.775Z,21.88
2023-05-21T03:50:59.284Z,21.87
2023-05-21T03:52:04.779Z,21.86
2023-05-21T03:53:10.331Z,21.86
2023-05-21T03:54:15.833Z,21.86
2023-05-21T03:55:21.300Z,21.86
2023-05-21T03:56:26.812Z,21.91
2023-05-21T03:57:32.263Z,21.89
2023-05-21T03:58:37.775Z,21.88
2023-05-21T03:59:43.236Z,21.87
2023-05-21T04:00:48.675Z,21.86
2023-05-21T04:01:54.161Z,21.87
2023-05-21T04:02:59.697Z,21.87
2023-05-21T04:04:05.535Z,21.88
2023-05-21T04:05:11.380Z,21.88
2023-05-21T04:06:16.852Z,21.89
2023-05-21T04:07:22.327Z,21.87
2023-05-21T04:08:27.816Z,21.9
2023-05-21T04:09:34.738Z,21.9
2023-05-21T04:10:41.940Z,21.88
2023-05-21T04:11:47.402Z,21.86
2023-05-21T04:12:52.865Z,21.86
2023-05-21T04:13:58.303Z,21.87
2023-05-21T04:15:03.767Z,21.86
2023-05-21T04:16:09.476Z,21.85
2023-05-21T04:17:15.213Z,21.87
2023-05-21T04:18:20.684Z,21.86
2023-05-21T04:19:26.163Z,21.87
2023-05-21T04:20:31.798Z,21.86
2023-05-21T04:21:37.291Z,21.87
2023-05-21T04:22:42.793Z,21.89
2023-05-21T04:23:48.333Z,21.89
2023-05-21T04:24:53.816Z,21.91
2023-05-21T04:25:59.441Z,21.92
2023-05-21T04:27:04.930Z,21.91
2023-05-21T04:28:10.404Z,21.91
2023-05-21T04:29:15.893Z,21.93
2023-05-21T04:30:21.342Z,21.93
2023-05-21T04:31:26.961Z,21.93
2023-05-21T04:32:32.701Z,21.91
2023-05-21T04:33:38.223Z,21.93
2023-05-21T04:34:43.689Z,21.92
2023-05-21T04:35:49.180Z,21.92
2023-05-21T04:36:54.686Z,21.91
2023-05-21T04:39:07.577Z,21.92
2023-05-21T04:40:13.037Z,21.93
2023-05-21T04:41:18.568Z,21.91
2023-05-21T04:42:24.046Z,21.91
2023-05-21T04:43:29.566Z,21.91
2023-05-21T04:44:35.014Z,21.92
2023-05-21T04:45:40.473Z,21.92
2023-05-21T04:46:46.287Z,21.91
2023-05-21T04:47:51.983Z,21.91
2023-05-21T04:48:57.637Z,21.92
2023-05-21T04:50:03.152Z,21.94
2023-05-21T04:51:08.653Z,21.92
2023-05-21T04:52:14.143Z,21.94
2023-05-21T04:53:19.680Z,21.93
2023-05-21T04:54:25.348Z,21.93
2023-05-21T04:55:30.798Z,21.93
2023-05-21T04:56:36.335Z,21.93
2023-05-21T04:57:41.863Z,21.93
2023-05-21T04:58:47.308Z,21.94
2023-05-21T04:59:52.803Z,21.94
2023-05-21T05:00:58.322Z,21.92
2023-05-21T05:02:04.021Z,21.91
2023-05-21T05:03:09.534Z,21.93
2023-05-21T05:04:15.209Z,21.93
2023-05-21T05:05:20.745Z,21.93
2023-05-21T05:06:26.270Z,21.92
2023-05-21T05:07:31.760Z,21.94
2023-05-21T05:08:37.234Z,21.94
2023-05-21T05:09:42.744Z,21.94
2023-05-21T05:10:48.247Z,21.93
2023-05-21T05:11:53.748Z,21.94
2023-05-21T05:12:59.253Z,21.92
2023-05-21T05:14:04.724Z,21.94
2023-05-21T05:15:10.243Z,21.95
2023-05-21T05:16:15.752Z,21.94
2023-05-21T05:17:21.430Z,21.95
2023-05-21T05:18:29.200Z,21.93
2023-05-21T05:19:34.736Z,21.94
2023-05-21T05:20:40.247Z,21.93
2023-05-21T05:21:45.727Z,21.95
2023-05-21T05:22:51.214Z,21.96
2023-05-21T05:23:56.706Z,21.96
2023-05-21T05:25:02.171Z,21.95
2023-05-21T05:26:07.691Z,21.95
2023-05-21T05:27:13.174Z,21.94
2023-05-21T05:28:18.757Z,21.93
2023-05-21T05:29:24.210Z,21.94
2023-05-21T05:30:29.946Z,21.93
2023-05-21T05:31:35.450Z,21.95
2023-05-21T05:32:40.945Z,21.95
2023-05-21T05:33:46.590Z,21.98
2023-05-21T05:34:52.054Z,21.99
2023-05-21T05:35:57.560Z,21.99
2023-05-21T05:37:03.065Z,21.98
2023-05-21T05:38:08.564Z,21.98
2023-05-21T05:39:14.028Z,21.98
2023-05-21T05:40:19.475Z,21.96
2023-05-21T05:41:24.953Z,21.97
2023-05-21T05:42:30.438Z,21.97
2023-05-21T05:43:35.916Z,21.95
2023-05-21T05:44:41.374Z,21.94
2023-05-21T05:45:46.869Z,21.96
2023-05-21T05:46:52.407Z,21.95
2023-05-21T05:47:57.962Z,21.97
2023-05-21T05:49:03.587Z,21.95
2023-05-21T05:50:09.044Z,21.97
2023-05-21T05:51:14.505Z,21.98
2023-05-21T05:52:20.063Z,22
2023-05-21T05:53:25.559Z,22.01
2023-05-21T05:54:31.002Z,22
2023-05-21T05:55:36.713Z,21.99
2023-05-21T05:56:42.764Z,22
2023-05-21T05:57:48.237Z,21.99
2023-05-21T05:58:53.754Z,21.98
2023-05-21T05:59:59.224Z,21.98
2023-05-21T06:01:04.959Z,21.99
2023-05-21T06:02:10.480Z,22
2023-05-21T06:03:16.134Z,22
2023-05-21T06:04:22.004Z,22
2023-05-21T06:05:27.533Z,21.99
2023-05-21T06:06:33.140Z,21.99
2023-05-21T06:07:38.650Z,21.99
2023-05-21T06:08:44.131Z,21.98
2023-05-21T06:09:49.643Z,22
2023-05-21T06:10:55.069Z,21.98
2023-05-21T06:12:00.548Z,21.98
2023-05-21T06:13:06.010Z,21.97
2023-05-21T06:14:11.747Z,21.99
2023-05-21T06:15:17.243Z,22.01
2023-05-21T06:16:22.815Z,21.99
2023-05-21T06:17:28.466Z,21.97
2023-05-21T06:18:34.081Z,21.98
2023-05-21T06:19:39.531Z,22.03
2023-05-21T06:20:45.054Z,22.06
2023-05-21T06:21:50.490Z,22.04
2023-05-21T06:22:55.900Z,22.02
2023-05-21T06:24:01.344Z,22.02
2023-05-21T06:25:06.824Z,22.03
2023-05-21T06:26:12.336Z,22.02
2023-05-21T06:27:17.870Z,22.02
2023-05-21T06:28:23.378Z,22.02
2023-05-21T06:29:28.828Z,22.03
2023-05-21T06:30:34.261Z,22.02
2023-05-21T06:31:39.764Z,22.02
2023-05-21T06:32:45.277Z,22.03
2023-05-21T06:33:51.156Z,22.03
2023-05-21T06:34:57.143Z,22.07
2023-05-21T06:36:02.600Z,22.07
2023-05-21T06:37:08.052Z,22.06
2023-05-21T06:38:13.529Z,22.06
2023-05-21T06:39:18.981Z,22.06
2023-05-21T06:40:24.566Z,22.07
2023-05-21T06:41:30.281Z,22.07
2023-05-21T06:42:35.755Z,22.08
2023-05-21T06:43:41.228Z,22.09
2023-05-21T06:44:46.723Z,22.08
2023-05-21T06:45:52.241Z,22.07
2023-05-21T06:46:58.199Z,22.08
2023-05-21T06:48:03.675Z,22.09
2023-05-21T06:49:09.355Z,22.11
2023-05-21T06:50:17.562Z,22.13
2023-05-21T06:51:23.050Z,22.13
2023-05-21T06:52:28.518Z,22.14
2023-05-21T06:53:33.964Z,22.16
2023-05-21T06:54:39.439Z,22.14
2023-05-21T06:55:44.958Z,22.14
2023-05-21T06:56:50.550Z,22.16
2023-05-21T06:57:56.028Z,22.18
2023-05-21T06:59:01.494Z,22.18
2023-05-21T07:00:06.989Z,22.2
2023-05-21T07:01:12.478Z,22.19
2023-05-21T07:02:18.113Z,22.18
2023-05-21T07:03:24.035Z,22.21
2023-05-21T07:04:29.951Z,22.22
2023-05-21T07:05:35.672Z,22.22
2023-05-21T07:06:42.355Z,22.21
2023-05-21T07:07:47.934Z,22.2
2023-05-21T07:08:53.395Z,22.21
2023-05-21T07:09:58.962Z,22.21
2023-05-21T07:11:04.490Z,22.23
2023-05-21T07:12:09.963Z,22.29
2023-05-21T07:13:15.460Z,22.31
2023-05-21T07:14:20.915Z,22.33
2023-05-21T07:15:26.384Z,22.3
2023-05-21T07:16:32.073Z,22.22
2023-05-21T07:17:37.796Z,22.15
2023-05-21T07:18:43.466Z,22.13
2023-05-21T07:19:49.133Z,22.1
2023-05-21T07:20:54.595Z,22.09
2023-05-21T07:22:01.086Z,22.06
2023-05-21T07:23:06.550Z,22.07
2023-05-21T07:24:12.009Z,22.04
2023-05-21T07:25:17.545Z,22.04
2023-05-21T07:26:22.976Z,22.03
2023-05-21T07:27:28.748Z,22.04
2023-05-21T07:28:34.201Z,22.04
2023-05-21T07:29:39.667Z,22.02
2023-05-21T07:30:45.219Z,22
2023-05-21T07:31:50.914Z,21.98
2023-05-21T07:32:56.400Z,21.98
2023-05-21T07:34:03.008Z,21.95
2023-05-21T07:35:08.547Z,21.97
2023-05-21T07:36:14.162Z,21.94
2023-05-21T07:37:19.677Z,21.94
2023-05-21T07:38:27.782Z,21.94
2023-05-21T07:39:33.273Z,21.95
2023-05-21T07:40:38.753Z,21.95
2023-05-21T07:41:44.230Z,21.94
2023-05-21T07:42:49.751Z,21.92
2023-05-21T07:43:55.249Z,21.93
2023-05-21T07:45:00.717Z,21.92
2023-05-21T07:46:06.189Z,21.91
2023-05-21T07:47:11.811Z,21.92
2023-05-21T07:48:17.375Z,21.92
2023-05-21T07:49:22.820Z,21.91
2023-05-21T07:50:28.324Z,21.91
2023-05-21T07:51:33.783Z,21.92
2023-05-21T07:52:39.291Z,21.92
2023-05-21T07:53:44.896Z,21.91
2023-05-21T07:54:50.394Z,21.92
2023-05-21T07:55:55.860Z,21.93
2023-05-21T07:57:01.317Z,21.95
2023-05-21T07:58:06.880Z,21.95
2023-05-21T07:59:13.805Z,21.94
2023-05-21T08:00:19.430Z,21.95
2023-05-21T08:01:24.888Z,21.95
2023-05-21T08:02:30.388Z,21.94
2023-05-21T08:03:36.201Z,21.94
2023-05-21T08:04:42.141Z,21.93
2023-05-21T08:05:47.815Z,21.93
2023-05-21T08:06:53.351Z,21.92
2023-05-21T08:07:58.824Z,21.89
2023-05-21T08:09:04.341Z,21.89
2023-05-21T08:10:09.851Z,21.88
2023-05-21T08:11:15.349Z,21.87
2023-05-21T08:12:20.816Z,21.85
2023-05-21T08:13:26.289Z,21.85
2023-05-21T08:14:31.757Z,21.85
2023-05-21T08:15:37.581Z,21.84
2023-05-21T08:16:43.385Z,21.82
2023-05-21T08:17:49.185Z,21.82
2023-05-21T08:18:54.797Z,21.82
2023-05-21T08:20:00.378Z,21.81
2023-05-21T08:21:05.871Z,21.82
2023-05-21T08:22:11.389Z,21.81
2023-05-21T08:23:16.855Z,21.8
2023-05-21T08:24:22.343Z,21.8
2023-05-21T08:25:27.784Z,21.8
2023-05-21T08:26:33.269Z,21.79
2023-05-21T08:27:38.735Z,21.78
2023-05-21T08:28:44.248Z,21.78
2023-05-21T08:29:49.736Z,21.77
2023-05-21T08:30:55.268Z,21.76
2023-05-21T08:32:00.704Z,21.73
2023-05-21T08:33:06.450Z,21.78
2023-05-21T08:34:12.222Z,21.8
2023-05-21T08:35:17.743Z,21.85
2023-05-21T08:36:23.206Z,21.89
2023-05-21T08:37:28.664Z,21.92
2023-05-21T08:38:34.127Z,21.94
2023-05-21T08:39:39.607Z,21.96
2023-05-21T08:40:45.170Z,21.97
2023-05-21T08:41:52.861Z,21.97
2023-05-21T08:42:58.325Z,21.99
2023-05-21T08:44:03.837Z,22.01
2023-05-21T08:45:11.605Z,22.02
2023-05-21T08:46:17.195Z,22.04
2023-05-21T08:47:22.915Z,22.04
2023-05-21T08:48:28.488Z,22.05
2023-05-21T08:49:33.945Z,22.05
2023-05-21T08:50:39.560Z,22.07
2023-05-21T08:51:45.062Z,22.07
2023-05-21T08:52:50.836Z,22.07
2023-05-21T08:53:56.331Z,22.05
2023-05-21T08:55:01.802Z,22.06
2023-05-21T08:56:07.287Z,22.07
2023-05-21T08:57:12.741Z,22.07
2023-05-21T08:58:18.231Z,22.09
2023-05-21T08:59:23.718Z,22.07
2023-05-21T09:00:29.258Z,22.1
2023-05-21T09:01:34.795Z,22.1
2023-05-21T09:02:40.621Z,22.11
2023-05-21T09:03:46.485Z,22.12
2023-05-21T09:04:52.055Z,22.13
2023-05-21T09:05:57.509Z,22.14
2023-05-21T09:07:03.084Z,22.15
2023-05-21T09:08:08.665Z,22.16
2023-05-21T09:09:14.132Z,22.15
2023-05-21T09:10:19.726Z,22.16
2023-05-21T09:11:25.279Z,22.15
2023-05-21T09:12:30.793Z,22.16
2023-05-21T09:13:38.230Z,22.15
2023-05-21T09:14:44.282Z,22.15
2023-05-21T09:15:49.756Z,22.16
2023-05-21T09:16:55.280Z,22.18
2023-05-21T09:18:00.948Z,22.18
2023-05-21T09:19:06.653Z,22.19
2023-05-21T09:20:13.302Z,22.18
2023-05-21T09:21:19.486Z,22.19
2023-05-21T09:22:25.011Z,22.2
2023-05-21T09:23:30.489Z,22.22
2023-05-21T09:24:36.534Z,22.22
2023-05-21T09:25:42.068Z,22.23
2023-05-21T09:26:47.559Z,22.23
2023-05-21T09:27:53.053Z,22.24
2023-05-21T09:28:58.517Z,22.25
2023-05-21T09:30:04.025Z,22.28
2023-05-21T09:31:09.548Z,22.29
2023-05-21T09:32:15.128Z,22.26
2023-05-21T09:33:20.644Z,22.26
2023-05-21T09:34:26.072Z,22.25
2023-05-21T09:35:31.537Z,22.24
2023-05-21T09:36:38.810Z,22.22
2023-05-21T09:37:44.343Z,22.21
2023-05-21T09:38:49.877Z,22.21
2023-05-21T09:39:55.336Z,22.19
2023-05-21T09:41:00.930Z,22.19
2023-05-21T09:42:06.454Z,22.17
2023-05-21T09:43:11.929Z,22.19
2023-05-21T09:44:17.412Z,22.21
2023-05-21T09:45:22.868Z,22.22
2023-05-21T09:46:28.428Z,22.2
2023-05-21T09:47:34.099Z,22.19
2023-05-21T09:48:39.682Z,22.17
2023-05-21T09:49:45.195Z,22.17
2023-05-21T09:50:50.658Z,22.16
2023-05-21T09:51:56.150Z,22.15
2023-05-21T09:53:01.663Z,22.17
2023-05-21T09:54:07.138Z,22.16
2023-05-21T09:55:12.657Z,22.17
2023-05-21T09:56:18.145Z,22.15
2023-05-21T09:57:23.628Z,22.14
2023-05-21T09:58:29.138Z,22.15
2023-05-21T09:59:34.595Z,22.15
2023-05-21T10:00:40.045Z,22.14
2023-05-21T10:01:45.665Z,22.15
2023-05-21T10:02:51.256Z,22.16
2023-05-21T10:03:56.987Z,22.15
2023-05-21T10:05:02.716Z,22.17
2023-05-21T10:06:08.224Z,22.17
2023-05-21T10:07:15.952Z,22.17
2023-05-21T10:08:21.500Z,22.17
2023-05-21T10:09:26.972Z,22.15
2023-05-21T10:10:32.454Z,22.16
2023-05-21T10:11:38.267Z,22.17
2023-05-21T10:12:43.762Z,22.18
2023-05-21T10:13:49.207Z,22.18
2023-05-21T10:14:54.681Z,22.18
2023-05-21T10:16:00.196Z,22.17
2023-05-21T10:17:05.798Z,22.15
2023-05-21T10:18:11.276Z,22.15
2023-05-21T10:19:16.810Z,22.15
2023-05-21T10:20:22.420Z,22.17
2023-05-21T10:21:27.895Z,22.17
2023-05-21T10:22:33.357Z,22.17
2023-05-21T10:23:38.787Z,22.19
2023-05-21T10:24:44.324Z,22.19
2023-05-21T10:25:49.788Z,22.21
2023-05-21T10:26:55.359Z,22.2
2023-05-21T10:28:00.890Z,22.18
2023-05-21T10:29:06.356Z,22.17
2023-05-21T10:30:11.806Z,22.17
2023-05-21T10:31:17.278Z,22.15
2023-05-21T10:32:23.006Z,22.11
2023-05-21T10:33:28.954Z,22.16
2023-05-21T10:34:34.714Z,22.17
2023-05-21T10:35:40.237Z,22.18
2023-05-21T10:36:45.733Z,22.19
2023-05-21T10:37:51.237Z,22.17
2023-05-21T10:38:56.707Z,22.22
2023-05-21T10:40:02.161Z,22.28
2023-05-21T10:41:07.679Z,22.32
2023-05-21T10:42:13.131Z,22.33
2023-05-21T10:43:18.574Z,22.37
2023-05-21T10:44:24.020Z,22.4
2023-05-21T10:45:29.546Z,22.44
2023-05-21T10:46:35.150Z,22.47
2023-05-21T10:47:40.633Z,22.49
2023-05-21T10:48:46.220Z,22.5
2023-05-21T10:49:51.685Z,22.5
2023-05-21T10:50:57.186Z,22.48
2023-05-21T10:52:02.616Z,22.47
2023-05-21T10:53:10.019Z,22.5
2023-05-21T10:54:16.261Z,22.52
2023-05-21T10:55:21.724Z,22.54
2023-05-21T10:56:27.250Z,22.53
2023-05-21T10:57:32.771Z,22.55
2023-05-21T10:58:38.255Z,22.53
2023-05-21T10:59:43.722Z,22.52
2023-05-21T11:00:49.226Z,22.52
2023-05-21T11:01:54.860Z,22.53
2023-05-21T11:03:00.386Z,22.54
2023-05-21T11:04:06.149Z,22.55
2023-05-21T11:05:11.701Z,22.58
2023-05-21T11:06:17.178Z,22.6
2023-05-21T11:07:22.656Z,22.61
2023-05-21T11:08:28.142Z,22.66
2023-05-21T11:09:33.736Z,22.69
2023-05-21T11:10:39.464Z,22.68
2023-05-21T11:11:45.352Z,22.64
2023-05-21T11:12:50.863Z,22.57
2023-05-21T11:13:56.299Z,22.53
2023-05-21T11:15:01.818Z,22.5
2023-05-21T11:16:07.382Z,22.49
2023-05-21T11:17:12.954Z,22.49
2023-05-21T11:18:18.916Z,22.47
2023-05-21T11:19:24.389Z,22.47
2023-05-21T11:20:30.187Z,22.47
2023-05-21T11:21:35.658Z,22.47
2023-05-21T11:22:41.188Z,22.46
2023-05-21T11:23:46.740Z,22.46
2023-05-21T11:24:52.214Z,22.46
2023-05-21T11:25:57.755Z,22.46
2023-05-21T11:27:03.191Z,22.47
2023-05-21T11:28:08.694Z,22.46
2023-05-21T11:29:14.159Z,22.48
2023-05-21T11:30:19.637Z,22.47
2023-05-21T11:31:25.181Z,22.46
2023-05-21T11:32:30.810Z,22.46
2023-05-21T11:33:36.412Z,22.46
2023-05-21T11:34:41.941Z,22.47
2023-05-21T11:35:47.382Z,22.46
2023-05-21T11:36:52.823Z,22.45
2023-05-21T11:37:58.338Z,22.45
2023-05-21T11:39:03.770Z,22.44
2023-05-21T11:40:09.235Z,22.45
2023-05-21T11:41:14.676Z,22.44
2023-05-21T11:42:20.120Z,22.44
2023-05-21T11:43:25.566Z,22.45
2023-05-21T11:44:31.069Z,22.44
2023-05-21T11:45:36.533Z,22.45
2023-05-21T11:46:42.034Z,22.45
2023-05-21T11:47:47.635Z,22.44
2023-05-21T11:48:53.202Z,22.45
2023-05-21T11:49:58.830Z,22.44
2023-05-21T11:51:04.514Z,22.47
2023-05-21T11:52:10.007Z,22.46
2023-05-21T11:53:15.467Z,22.46
2023-05-21T11:54:20.970Z,22.47
2023-05-21T11:55:26.486Z,22.46
2023-05-21T11:56:32.038Z,22.45
2023-05-21T11:57:37.516Z,22.47
2023-05-21T11:58:42.992Z,22.47
2023-05-21T11:59:48.456Z,22.46
2023-05-21T12:00:53.989Z,22.46
2023-05-21T12:01:59.525Z,22.44
2023-05-21T12:03:05.060Z,22.45
2023-05-21T12:04:10.971Z,22.45
2023-05-21T12:05:16.887Z,22.44
2023-05-21T12:06:22.427Z,22.44
2023-05-21T12:07:28.275Z,22.45
2023-05-21T12:08:33.944Z,22.5
2023-05-21T12:09:39.413Z,22.57
2023-05-21T12:10:46.170Z,22.88
2023-05-21T12:11:51.820Z,22.83
2023-05-21T12:12:57.738Z,22.75
2023-05-21T12:14:03.278Z,22.72
2023-05-21T12:15:08.891Z,22.67
2023-05-21T12:16:14.444Z,22.62
2023-05-21T12:17:20.029Z,22.57
2023-05-21T12:18:25.700Z,22.53
2023-05-21T12:19:31.277Z,22.52
2023-05-21T12:20:37.412Z,22.49
2023-05-21T12:21:43.212Z,22.47
2023-05-21T12:22:48.692Z,22.46
2023-05-21T12:23:54.371Z,22.43
2023-05-21T12:24:59.841Z,22.43
2023-05-21T12:26:05.375Z,22.41
2023-05-21T12:27:10.866Z,22.41
2023-05-21T12:28:16.397Z,22.41
2023-05-21T12:29:21.866Z,22.41
2023-05-21T12:30:27.366Z,22.4
2023-05-21T12:31:33.040Z,22.4
2023-05-21T12:32:38.670Z,22.38
2023-05-21T12:33:44.411Z,22.38
2023-05-21T12:34:49.904Z,22.37
2023-05-21T12:35:55.422Z,22.37
2023-05-21T12:37:01.058Z,22.37
2023-05-21T12:38:06.548Z,22.36
2023-05-21T12:39:12.043Z,22.35
2023-05-21T12:40:17.540Z,22.35
2023-05-21T12:41:23.082Z,22.34
2023-05-21T12:42:30.885Z,22.33
2023-05-21T12:43:36.404Z,22.32
2023-05-21T12:44:41.913Z,22.32
2023-05-21T12:45:47.434Z,22.31
2023-05-21T12:46:53.103Z,22.31
2023-05-21T12:47:58.605Z,22.31
2023-05-21T12:49:04.283Z,22.3
2023-05-21T12:50:09.784Z,22.29
2023-05-21T12:51:15.504Z,22.29
2023-05-21T12:52:20.988Z,22.28
2023-05-21T12:53:26.482Z,22.27
2023-05-21T12:54:31.964Z,22.28
2023-05-21T12:55:37.434Z,22.29
2023-05-21T12:56:42.980Z,22.29
2023-05-21T12:57:48.506Z,22.31
2023-05-21T12:58:53.998Z,22.31
2023-05-21T12:59:59.640Z,22.3
2023-05-21T13:01:05.403Z,22.3
2023-05-21T13:02:11.010Z,22.29
2023-05-21T13:03:16.533Z,22.27
2023-05-21T13:04:22.209Z,22.29
2023-05-21T13:05:27.866Z,22.28
2023-05-21T13:06:33.463Z,22.28
2023-05-21T13:07:38.912Z,22.28
2023-05-21T13:08:44.380Z,22.28
2023-05-21T13:09:49.841Z,22.28
2023-05-21T13:10:55.320Z,22.28
2023-05-21T13:12:00.800Z,22.27
2023-05-21T13:13:06.264Z,22.27
2023-05-21T13:14:11.771Z,22.27
2023-05-21T13:15:17.289Z,22.26
2023-05-21T13:16:22.839Z,22.26
2023-05-21T13:17:28.579Z,22.26
2023-05-21T13:18:34.240Z,22.26
2023-05-21T13:19:39.691Z,22.26
2023-05-21T13:20:45.173Z,22.27
2023-05-21T13:21:50.638Z,22.27
2023-05-21T13:22:56.134Z,22.27
2023-05-21T13:24:01.707Z,22.28
2023-05-21T13:25:07.244Z,22.3
2023-05-21T13:26:12.734Z,22.31
2023-05-21T13:27:18.186Z,22.31
2023-05-21T13:28:23.666Z,22.31
2023-05-21T13:29:29.143Z,22.32
2023-05-21T13:30:35.123Z,22.32
2023-05-21T13:31:41.515Z,22.33
2023-05-21T13:32:47.047Z,22.32
2023-05-21T13:33:53.433Z,22.32
2023-05-21T13:34:58.955Z,22.32
2023-05-21T13:36:04.415Z,22.33
2023-05-21T13:37:09.901Z,22.33
2023-05-21T13:38:15.364Z,22.33
2023-05-21T13:39:20.861Z,22.32
2023-05-21T13:40:26.360Z,22.31
2023-05-21T13:41:31.837Z,22.32
2023-05-21T13:42:37.322Z,22.32
2023-05-21T13:43:43.072Z,22.33
2023-05-21T13:44:48.585Z,22.33
2023-05-21T13:45:54.096Z,22.34
2023-05-21T13:46:59.648Z,22.34
2023-05-21T13:48:05.474Z,22.34
2023-05-21T13:49:13.377Z,22.36
2023-05-21T13:50:18.831Z,22.36
2023-05-21T13:51:37.811Z,22.36
2023-05-21T13:52:44.182Z,22.36
2023-05-21T13:53:49.657Z,22.37
2023-05-21T13:54:56.053Z,22.37
2023-05-21T13:56:01.495Z,22.36
2023-05-21T13:57:06.938Z,22.37
2023-05-21T13:58:12.423Z,22.37
2023-05-21T13:59:17.862Z,22.38
2023-05-21T14:00:23.322Z,22.37
2023-05-21T14:01:28.878Z,22.38
2023-05-21T14:02:34.792Z,22.39
2023-05-21T14:03:40.846Z,22.4
2023-05-21T14:04:46.312Z,22.4
2023-05-21T14:05:51.838Z,22.4
2023-05-21T14:06:57.419Z,22.4
2023-05-21T14:08:02.990Z,22.41
2023-05-21T14:09:08.529Z,22.41